Time;durP1;ratioP1;P1;durP2;ratioP2;P2;SDS_P1;SDS_P2;PMS_P1;PMS_P2;Temp;Humidity;BMP_temperature;BMP_pressure;BME280_temperature;BME280_humidity;BME280_pressure;Samples;Min_cycle;Max_cycle;Signal;HPM_P1;HPM_P2
2022/08/21 00:00:14;;;;;;;9.07;3.85;;;;;;;21.74;100.00;98484.19;4404925;32;20065;-71
2022/08/21 00:03:04;;;;;;;4.10;3.70;;;;;;;21.83;100.00;98475.88;4407726;32;20050;-71
2022/08/21 00:05:33;;;;;;;5.28;3.67;;;;;;;21.33;100.00;98435.72;4397432;32;20060;-71
2022/08/21 00:07:59;;;;;;;12.95;3.95;;;;;;;21.61;100.00;98463.38;4365654;32;20174;-73
2022/08/21 00:10:26;;;;;;;8.93;4.40;;;;;;;21.57;100.00;98465.16;4354135;32;20050;-70
2022/08/21 00:12:52;;;;;;;6.35;3.85;;;;;;;21.63;100.00;98469.28;4358806;32;20032;-68
2022/08/21 00:15:28;;;;;;;5.35;3.55;;;;;;;21.63;100.00;98443.84;4365626;32;20490;-69
2022/08/21 00:17:56;;;;;;;7.40;3.50;;;;;;;21.33;100.00;98424.75;4372453;32;20026;-70
2022/08/21 00:20:23;;;;;;;9.20;3.25;;;;;;;21.77;100.00;98466.28;4376746;32;20039;-70
2022/08/21 00:22:50;;;;;;;5.22;3.95;;;;;;;21.59;100.00;98458.22;4357961;32;20071;-70
2022/08/21 00:25:17;;;;;;;12.15;3.85;;;;;;;21.41;100.00;98438.37;4370875;32;20444;-68
2022/08/21 00:27:46;;;;;;;6.70;3.20;;;;;;;21.55;100.00;98442.78;4360196;32;20069;-68
2022/08/21 00:30:14;;;;;;;6.47;3.03;;;;;;;21.38;100.00;98417.16;4354966;32;20061;-71
2022/08/21 00:32:41;;;;;;;5.28;3.28;;;;;;;21.32;100.00;98406.75;4357515;32;20155;-69
2022/08/21 00:35:12;;;;;;;5.68;3.22;;;;;;;21.56;100.00;98452.63;4367332;32;20053;-70
2022/08/21 00:37:39;;;;;;;8.77;3.40;;;;;;;21.22;100.00;98399.72;4353426;32;20067;-69
2022/08/21 00:40:10;;;;;;;6.55;3.47;;;;;;;21.58;100.00;98444.84;4380709;32;20053;-73
2022/08/21 00:42:37;;;;;;;4.97;2.95;;;;;;;21.57;100.00;98429.56;4390497;32;20098;-69
2022/08/21 00:45:04;;;;;;;9.13;3.85;;;;;;;21.63;100.00;98438.37;4399904;32;20035;-69
2022/08/21 00:47:30;;;;;;;6.82;3.12;;;;;;;21.51;100.00;98400.81;4373029;32;20066;-70
2022/08/21 00:49:57;;;;;;;9.27;3.95;;;;;;;21.77;100.00;98434.19;4382929;32;20413;-69
2022/08/21 00:52:28;;;;;;;6.55;3.15;;;;;;;21.78;100.00;98435.00;4373681;32;20031;-70
2022/08/21 00:54:58;;;;;;;12.02;5.18;;;;;;;21.92;100.00;98430.00;4369877;32;20031;-70
2022/08/21 00:57:49;;;;;;;7.95;3.67;;;;;;;21.83;100.00;98414.81;4369791;32;20061;-70
2022/08/21 01:00:19;;;;;;;7.12;3.55;;;;;;;21.93;100.00;98433.53;4369366;32;20100;-70
2022/08/21 01:02:46;;;;;;;6.60;3.50;;;;;;;21.79;100.00;98425.63;4378229;32;20043;-70
2022/08/21 01:05:13;;;;;;;8.05;3.75;;;;;;;21.59;100.00;98397.97;4374683;32;20035;-71
2022/08/21 01:07:40;;;;;;;8.15;4.10;;;;;;;21.60;100.00;98434.34;4376503;32;20083;-73
2022/08/21 01:10:08;;;;;;;5.18;3.30;;;;;;;21.71;100.00;98435.53;4372580;32;20720;-70
2022/08/21 01:12:35;;;;;;;12.05;4.10;;;;;;;21.68;100.00;98429.94;4369020;32;20043;-70
2022/08/21 01:15:04;;;;;;;9.60;4.37;;;;;;;21.82;100.00;98424.16;4339597;32;20446;-69
2022/08/21 01:17:32;;;;;;;10.27;4.15;;;;;;;21.74;100.00;98429.38;4341248;32;20066;-69
2022/08/21 01:20:01;;;;;;;4.82;3.47;;;;;;;21.80;100.00;98423.72;4366917;32;20061;-70
2022/08/21 01:22:27;;;;;;;10.25;4.07;;;;;;;21.72;100.00;98426.19;4369707;32;20035;-70
2022/08/21 01:24:54;;;;;;;7.78;4.53;;;;;;;21.70;100.00;98416.69;4369030;32;20472;-70
2022/08/21 01:27:21;;;;;;;9.50;4.40;;;;;;;21.62;100.00;98421.16;4339702;33;20109;-70
2022/08/21 01:29:58;;;;;;;10.05;4.62;;;;;;;21.77;100.00;98423.22;4337210;33;20039;-70
2022/08/21 01:32:25;;;;;;;9.52;4.50;;;;;;;21.87;100.00;98426.69;4329274;33;20040;-70
2022/08/21 01:34:52;;;;;;;9.00;4.68;;;;;;;21.94;100.00;98421.44;4324259;33;20418;-71
2022/08/21 01:37:20;;;;;;;13.13;4.82;;;;;;;21.90;100.00;98420.50;4324008;33;20081;-72
2022/08/21 01:39:47;;;;;;;14.02;5.20;;;;;;;21.88;100.00;98417.31;4323943;33;20067;-70
2022/08/21 01:42:14;;;;;;;9.35;4.32;;;;;;;21.76;100.00;98386.03;4328056;33;20054;-70
2022/08/21 01:44:41;;;;;;;9.80;5.10;;;;;;;22.05;100.00;98414.38;4314465;33;20070;-70
2022/08/21 01:47:09;;;;;;;7.45;5.37;;;;;;;21.90;100.00;98371.97;4351372;32;20181;-70
2022/08/21 01:49:37;;;;;;;12.18;5.87;;;;;;;22.02;100.00;98379.44;4351533;32;20024;-73
2022/08/21 01:52:05;;;;;;;15.73;5.45;;;;;;;22.34;100.00;98400.81;4323540;33;20078;-69
2022/08/21 01:54:32;;;;;;;12.88;6.57;;;;;;;22.29;100.00;98399.09;4324175;33;20055;-70
2022/08/21 01:57:00;;;;;;;17.60;6.95;;;;;;;22.06;100.00;98363.09;4317203;33;20037;-69
2022/08/21 01:59:27;;;;;;;10.43;5.35;;;;;;;22.12;100.00;98403.62;4326071;33;20339;-70
2022/08/21 02:01:55;;;;;;;15.23;5.80;;;;;;;21.85;100.00;98363.19;4334138;33;20223;-69
2022/08/21 02:04:21;;;;;;;10.45;6.25;;;;;;;22.11;100.00;98402.06;4324020;33;20074;-69
2022/08/21 02:06:49;;;;;;;13.73;6.70;;;;;;;22.19;100.00;98399.53;4324471;33;20170;-69
2022/08/21 02:09:16;;;;;;;11.02;6.57;;;;;;;22.00;100.00;98359.75;4326348;33;20058;-69
2022/08/21 02:11:43;;;;;;;14.43;6.53;;;;;;;22.17;100.00;98402.63;4321734;33;20029;-73
2022/08/21 02:14:11;;;;;;;12.40;6.62;;;;;;;22.03;100.00;98370.03;4325679;33;20229;-70
2022/08/21 02:16:38;;;;;;;11.93;6.30;;;;;;;22.39;100.00;98397.88;4338544;33;20036;-69
2022/08/21 02:19:05;;;;;;;13.23;6.78;;;;;;;22.41;100.00;98401.84;4337963;33;20077;-70
2022/08/21 02:21:32;;;;;;;12.15;7.22;;;;;;;22.52;100.00;98390.41;4331252;33;20374;-72
2022/08/21 02:23:58;;;;;;;16.12;7.10;;;;;;;22.33;100.00;98350.66;4310691;33;20032;-70
2022/08/21 02:26:25;;;;;;;14.32;7.20;;;;;;;22.46;100.00;98387.09;4312741;33;20083;-69
2022/08/21 02:28:52;;;;;;;9.88;6.62;;;;;;;22.19;100.00;98344.69;4359734;32;20445;-70
2022/08/21 02:31:25;;;;;;;16.37;7.62;;;;;;;22.13;100.00;98336.72;4362169;32;20057;-69
2022/08/21 02:33:52;;;;;;;10.85;7.03;;;;;;;22.36;100.00;98366.44;4366014;32;20493;-70
2022/08/21 02:36:18;;;;;;;19.02;6.85;;;;;;;22.09;100.00;98335.78;4361429;32;20084;-69
2022/08/21 02:38:44;;;;;;;15.85;7.10;;;;;;;22.27;100.00;98374.75;4352527;32;20073;-69
2022/08/21 02:41:16;;;;;;;11.25;6.90;;;;;;;22.11;100.00;98339.00;4359430;32;20073;-69
2022/08/21 02:43:43;;;;;;;20.42;8.02;;;;;;;22.22;100.00;98355.78;4355848;32;20053;-72
2022/08/21 02:46:11;;;;;;;13.93;7.87;;;;;;;22.25;100.00;98381.72;4366302;32;20159;-71
2022/08/21 02:48:39;;;;;;;11.43;8.10;;;;;;;22.20;100.00;98379.22;4368414;32;20027;-70
2022/08/21 02:51:16;;;;;;;9.88;7.47;;;;;;;21.91;100.00;98334.44;4363522;32;20036;-70
2022/08/21 02:53:42;;;;;;;19.73;7.93;;;;;;;22.37;100.00;98379.00;4358990;32;20055;-71
2022/08/21 02:56:11;;;;;;;18.42;7.97;;;;;;;22.22;100.00;98333.06;4368135;32;20024;-70
2022/08/21 02:58:47;;;;;;;10.93;7.62;;;;;;;22.28;100.00;98354.41;4368509;32;20506;-70
2022/08/21 03:01:15;;;;;;;15.05;7.70;;;;;;;21.83;100.00;98299.72;4367232;32;20052;-71
2022/08/21 03:03:44;;;;;;;15.05;9.07;;;;;;;22.18;100.00;98356.81;4365326;32;20035;-73
2022/08/21 03:06:13;;;;;;;17.70;8.85;;;;;;;22.19;100.00;98352.94;4369899;32;20087;-70
2022/08/21 03:08:40;;;;;;;13.70;8.00;;;;;;;22.16;100.00;98361.84;4371094;32;20117;-70
2022/08/21 03:11:08;;;;;;;18.75;7.65;;;;;;;21.97;100.00;98365.97;4402445;32;20046;-70
2022/08/21 03:13:34;;;;;;;24.27;8.25;;;;;;;21.61;100.00;98326.41;4400855;32;20031;-72
2022/08/21 03:16:01;;;;;;;16.02;8.90;;;;;;;21.74;100.00;98329.97;4400506;32;20147;-69
2022/08/21 03:18:27;;;;;;;12.00;7.47;;;;;;;21.95;100.00;98360.00;4416656;32;20076;-69
2022/08/21 03:20:53;;;;;;;11.77;6.90;;;;;;;21.79;100.00;98326.19;4385991;32;20562;-70
2022/08/21 03:23:20;;;;;;;8.38;6.40;;;;;;;21.84;100.00;98331.44;4378541;32;20355;-71
2022/08/21 03:25:48;;;;;;;10.65;6.80;;;;;;;21.39;100.00;98302.94;4339350;33;20053;-71
2022/08/21 03:28:18;;;;;;;20.10;6.05;;;;;;;21.67;100.00;98327.00;4341020;33;20050;-70
2022/08/21 03:30:52;;;;;;;14.82;6.55;;;;;;;21.96;100.00;98364.34;4339828;33;20117;-69
2022/08/21 03:33:19;;;;;;;8.93;5.82;;;;;;;21.91;100.00;98361.84;4341219;33;20480;-70
2022/08/21 03:35:52;;;;;;;11.57;7.00;;;;;;;22.04;100.00;98355.22;4337301;33;20066;-73
2022/08/21 03:38:19;;;;;;;12.00;5.85;;;;;;;22.12;100.00;98362.50;4340656;33;20062;-70
2022/08/21 03:40:46;;;;;;;8.43;5.37;;;;;;;22.00;100.00;98326.09;4340731;33;20051;-70
2022/08/21 03:43:12;;;;;;;13.52;6.22;;;;;;;22.07;100.00;98345.50;4341200;33;20369;-70
2022/08/21 03:45:39;;;;;;;11.07;7.00;;;;;;;21.98;100.00;98323.69;4340707;33;20409;-70
2022/08/21 03:48:07;;;;;;;7.55;6.05;;;;;;;22.28;100.00;98359.09;4338962;33;20052;-70
2022/08/21 03:50:37;;;;;;;6.22;5.28;;;;;;;22.10;100.00;98364.81;4339808;33;20098;-70
2022/08/21 03:53:05;;;;;;;7.82;4.87;;;;;;;22.06;100.00;98352.91;4313496;33;20438;-70
2022/08/21 03:55:32;;;;;;;13.38;6.10;;;;;;;21.88;100.00;98313.19;4309934;33;20055;-70
2022/08/21 03:57:58;;;;;;;8.73;5.87;;;;;;;21.90;100.00;98295.25;4342285;32;20028;-71
2022/08/21 04:00:25;;;;;;;16.20;5.40;;;;;;;22.28;100.00;98339.91;4365295;32;20443;-69
2022/08/21 04:02:52;;;;;;;11.73;5.25;;;;;;;22.31;100.00;98336.50;4371945;32;20072;-69
2022/08/21 04:05:26;;;;;;;6.37;4.68;;;;;;;22.34;100.00;98346.78;4374715;32;20049;-70
2022/08/21 04:08:05;;;;;;;9.93;4.57;;;;;;;22.28;100.00;98348.13;4370026;32;20065;-72
2022/08/21 04:10:34;;;;;;;9.35;5.30;;;;;;;22.04;100.00;98352.47;4370165;32;20048;-70
2022/08/21 04:13:03;;;;;;;14.82;5.32;;;;;;;21.95;100.00;98357.25;4370532;32;20090;-72
2022/08/21 04:15:30;;;;;;;6.55;5.12;;;;;;;21.97;100.00;98355.00;4340670;33;20032;-72
2022/08/21 04:17:56;;;;;;;8.15;4.95;;;;;;;22.11;100.00;98357.38;4338678;33;20400;-76
2022/08/21 04:20:30;;;;;;;12.23;5.22;;;;;;;21.73;100.00;98348.34;4337180;33;20055;-75
2022/08/21 04:22:56;;;;;;;13.65;5.82;;;;;;;21.54;100.00;98309.72;4311564;33;20350;-70
2022/08/21 04:25:25;;;;;;;8.48;5.30;;;;;;;21.93;100.00;98326.66;4299579;33;20125;-70
2022/08/21 04:27:52;;;;;;;10.98;5.07;;;;;;;21.59;100.00;98312.25;4309417;33;20359;-74
2022/08/21 04:30:19;;;;;;;5.57;4.78;;;;;;;21.75;100.00;98343.31;4310075;33;20066;-69
2022/08/21 04:32:48;;;;;;;9.23;5.20;;;;;;;21.87;100.00;98348.00;4310892;33;20367;-69
2022/08/21 04:35:17;;;;;;;11.07;4.93;;;;;;;21.91;100.00;98353.63;4310278;33;20041;-68
2022/08/21 04:37:43;;;;;;;15.02;4.65;;;;;;;21.88;100.00;98357.03;4310463;33;20347;-74
2022/08/21 04:40:12;;;;;;;10.00;4.30;;;;;;;22.09;100.00;98354.97;4309377;33;20078;-68
2022/08/21 04:43:01;;;;;;;5.85;4.35;;;;;;;22.10;100.00;98359.31;4309548;33;20062;-67
2022/08/21 04:45:47;;;;;;;8.90;5.18;;;;;;;22.04;100.00;98340.72;4311581;33;20066;-73
2022/08/21 04:48:16;;;;;;;17.27;3.75;;;;;;;22.14;100.00;98327.31;4325579;33;20037;-68
2022/08/21 04:51:00;;;;;;;5.90;3.87;;;;;;;22.35;100.00;98364.81;4323356;33;20041;-68
2022/08/21 04:53:48;;;;;;;5.30;4.00;;;;;;;22.37;100.00;98376.25;4329012;32;20365;-68
2022/08/21 04:56:22;;;;;;;6.30;4.60;;;;;;;22.57;100.00;98373.72;4360024;32;20044;-70
2022/08/21 04:58:52;;;;;;;5.10;4.25;;;;;;;22.74;100.00;98373.47;4369665;32;20063;-75
2022/08/21 05:01:21;;;;;;;9.57;6.53;;;;;;;22.75;100.00;98368.75;4369398;32;20040;-76
2022/08/21 05:03:50;;;;;;;6.47;5.03;;;;;;;22.80;100.00;98383.06;4368001;32;20032;-70
2022/08/21 05:06:17;;;;;;;17.27;5.55;;;;;;;22.62;100.00;98346.03;4369658;32;20057;-68
2022/08/21 05:08:46;;;;;;;5.68;3.78;;;;;;;22.92;100.00;98386.91;4366288;32;20065;-73
2022/08/21 05:11:13;;;;;;;5.87;4.12;;;;;;;22.84;100.00;98391.38;4368146;32;20027;-69
2022/08/21 05:13:41;;;;;;;8.85;5.57;;;;;;;22.76;100.00;98351.94;4375419;32;20085;-68
2022/08/21 05:16:07;;;;;;;5.43;4.68;;;;;;;22.70;100.00;98360.78;4368829;32;20363;-70
2022/08/21 05:18:34;;;;;;;7.28;6.57;;;;;;;22.93;100.00;98404.97;4368092;32;20036;-67
2022/08/21 05:21:00;;;;;;;7.25;5.80;;;;;;;23.02;100.00;98405.63;4372270;32;20038;-68
2022/08/21 05:23:27;;;;;;;20.27;5.82;;;;;;;22.97;100.00;98389.41;4401554;32;20218;-68
2022/08/21 05:25:53;;;;;;;17.17;6.15;;;;;;;23.11;100.00;98409.06;4354040;32;20035;-68
2022/08/21 05:28:19;;;;;;;17.83;6.82;;;;;;;22.69;100.00;98362.72;4357296;32;20032;-68
2022/08/21 05:30:47;;;;;;;9.88;6.60;;;;;;;23.17;100.00;98421.41;4357908;32;20040;-74
2022/08/21 05:33:19;;;;;;;9.55;6.82;;;;;;;22.83;100.00;98393.34;4354317;32;20047;-68
2022/08/21 05:35:50;;;;;;;9.55;6.72;;;;;;;22.62;100.00;98387.19;4353669;32;20043;-68
2022/08/21 05:38:17;;;;;;;9.77;6.75;;;;;;;22.93;100.00;98425.00;4339436;33;20031;-74
2022/08/21 05:40:44;;;;;;;14.60;7.70;;;;;;;22.70;100.00;98380.78;4329029;33;20028;-69
2022/08/21 05:43:10;;;;;;;11.25;8.30;;;;;;;22.69;100.00;98387.44;4324318;33;20091;-68
2022/08/21 05:45:37;;;;;;;12.88;6.57;;;;;;;23.18;100.00;98417.53;4324342;33;20036;-68
2022/08/21 05:48:08;;;;;;;13.98;7.65;;;;;;;23.30;100.00;98413.13;4339182;33;20036;-68
2022/08/21 05:50:35;;;;;;;17.00;6.97;;;;;;;23.13;100.00;98409.50;4321467;33;20056;-73
2022/08/21 05:53:02;;;;;;;12.75;6.45;;;;;;;22.97;100.00;98378.44;4317194;33;20079;-69
2022/08/21 05:55:28;;;;;;;9.52;7.00;;;;;;;23.15;100.00;98412.72;4305568;33;20066;-68
2022/08/21 05:57:54;;;;;;;11.52;7.72;;;;;;;23.26;100.00;98428.69;4310494;33;20530;-68
2022/08/21 06:00:22;;;;;;;10.13;6.22;;;;;;;23.38;100.00;98421.22;4318479;33;20076;-68
2022/08/21 06:02:50;;;;;;;21.30;7.00;;;;;;;23.32;100.00;98422.59;4312904;33;20037;-70
2022/08/21 06:05:17;;;;;;;13.88;5.68;;;;;;;23.28;100.00;98415.41;4308146;33;20459;-71
2022/08/21 06:07:43;;;;;;;7.62;5.62;;;;;;;23.28;100.00;98415.41;4296788;33;20024;-70
2022/08/21 06:10:10;;;;;;;11.20;5.55;;;;;;;23.23;100.00;98418.41;4286518;33;20084;-69
2022/08/21 06:12:37;;;;;;;15.43;6.43;;;;;;;23.38;100.00;98417.66;4294574;33;20049;-70
2022/08/21 06:15:03;;;;;;;8.82;5.15;;;;;;;23.51;100.00;98432.94;4298790;33;20054;-70
2022/08/21 06:17:30;;;;;;;9.18;5.57;;;;;;;23.26;100.00;98379.25;4319059;33;20061;-70
2022/08/21 06:19:56;;;;;;;8.13;5.28;;;;;;;23.42;100.00;98432.28;4321065;33;20418;-69
2022/08/21 06:22:23;;;;;;;10.13;5.45;;;;;;;23.56;100.00;98420.91;4343893;32;20048;-69
2022/08/21 06:24:49;;;;;;;16.40;4.80;;;;;;;23.43;100.00;98395.44;4339052;32;20078;-70
2022/08/21 06:27:17;;;;;;;11.07;5.55;;;;;;;23.28;100.00;98365.97;4357696;32;20080;-70
2022/08/21 06:29:44;;;;;;;12.02;5.43;;;;;;;23.38;100.00;98388.25;4348113;32;20454;-69
2022/08/21 06:32:12;;;;;;;7.53;4.47;;;;;;;23.74;100.00;98421.38;4342688;32;20119;-68
2022/08/21 06:34:41;;;;;;;12.20;5.53;;;;;;;23.72;100.00;98375.00;4352664;32;20144;-67
2022/08/21 06:37:07;;;;;;;5.72;5.10;;;;;;;24.17;100.00;98422.50;4350197;32;20430;-68
2022/08/21 06:39:35;;;;;;;15.55;5.15;;;;;;;24.27;100.00;98421.19;4333801;33;20054;-68
2022/08/21 06:42:01;;;;;;;12.10;5.20;;;;;;;24.33;100.00;98418.94;4345913;32;20105;-68
2022/08/21 06:44:30;;;;;;;6.25;4.70;;;;;;;24.36;100.00;98412.72;4353563;32;20054;-68
2022/08/21 06:46:56;;;;;;;8.48;5.65;;;;;;;24.42;100.00;98411.31;4346386;32;20130;-68
2022/08/21 06:49:23;;;;;;;11.95;4.15;;;;;;;24.40;100.00;98416.37;4360332;32;20069;-69
2022/08/21 06:51:50;;;;;;;6.75;4.47;;;;;;;24.47;100.00;98400.81;4347096;32;20029;-68
2022/08/21 06:54:16;;;;;;;8.40;4.45;;;;;;;24.21;100.00;98373.09;4314901;33;20062;-68
2022/08/21 06:56:43;;;;;;;8.65;4.93;;;;;;;24.59;100.00;98415.66;4328273;33;20058;-69
2022/08/21 06:59:09;;;;;;;7.75;4.03;;;;;;;24.69;100.00;98422.56;4335128;33;20045;-67
2022/08/21 07:01:36;;;;;;;7.70;4.18;;;;;;;24.61;100.00;98403.13;4344076;33;20057;-68
2022/08/21 07:04:03;;;;;;;8.40;4.00;;;;;;;24.86;100.00;98413.91;4319187;33;20469;-68
2022/08/21 07:06:29;;;;;;;7.47;5.50;;;;;;;24.88;100.00;98422.59;4307877;33;20066;-67
2022/08/21 07:08:56;;;;;;;9.93;4.87;;;;;;;24.78;100.00;98423.97;4306238;33;20044;-67
2022/08/21 07:11:23;;;;;;;12.40;5.87;;;;;;;24.76;100.00;98414.47;4317269;33;20082;-67
2022/08/21 07:13:52;;;;;;;11.60;5.45;;;;;;;24.78;100.00;98414.88;4322277;33;20025;-67
2022/08/21 07:16:20;;;;;;;11.95;4.85;;;;;;;24.66;100.00;98416.59;4337887;33;20179;-67
2022/08/21 07:18:46;;;;;;;8.52;4.57;;;;;;;24.76;100.00;98408.94;4337162;33;20066;-72
2022/08/21 07:21:12;;;;;;;7.00;5.28;;;;;;;24.60;100.00;98385.03;4320714;33;20037;-67
2022/08/21 07:23:42;;;;;;;12.40;4.90;;;;;;;24.95;100.00;98422.75;4308278;33;20071;-67
2022/08/21 07:26:20;;;;;;;7.25;4.70;;;;;;;24.95;100.00;98416.44;4308390;33;20470;-68
2022/08/21 07:28:48;;;;;;;6.57;4.25;;;;;;;25.02;100.00;98411.09;4307351;33;20333;-71
2022/08/21 07:31:17;;;;;;;10.23;5.18;;;;;;;25.11;100.00;98417.19;4317656;33;20056;-68
2022/08/21 07:33:44;;;;;;;14.00;5.12;;;;;;;25.27;100.00;98424.59;4317010;33;20070;-67
2022/08/21 07:36:11;;;;;;;6.80;3.78;;;;;;;25.12;100.00;98398.72;4364443;32;20262;-67
2022/08/21 07:38:37;;;;;;;8.15;3.72;;;;;;;25.27;100.00;98408.84;4368077;32;20032;-68
2022/08/21 07:41:14;;;;;;;4.65;3.85;;;;;;;25.39;100.00;98410.69;4364584;32;20035;-67
2022/08/21 07:43:41;;;;;;;6.10;3.78;;;;;;;25.44;100.00;98418.66;4367971;32;20035;-67
2022/08/21 07:46:08;;;;;;;12.05;3.75;;;;;;;25.20;100.00;98379.19;4366021;32;20087;-70
2022/08/21 07:48:35;;;;;;;5.70;3.20;;;;;;;25.36;100.00;98401.19;4367457;32;20053;-68
2022/08/21 07:51:06;;;;;;;5.70;3.40;;;;;;;25.49;100.00;98407.34;4365293;32;20104;-69
2022/08/21 07:53:35;;;;;;;5.43;3.08;;;;;;;25.69;100.00;98397.09;4370319;32;20762;-68
2022/08/21 07:56:04;;;;;;;4.22;3.15;;;;;;;25.73;100.00;98362.09;4385410;32;20442;-68
2022/08/21 07:58:31;;;;;;;9.68;3.28;;;;;;;25.89;100.00;98402.53;4382509;32;20146;-68
2022/08/21 08:00:57;;;;;;;4.20;2.90;;;;;;;25.91;100.00;98395.50;4382207;32;20047;-68
2022/08/21 08:03:24;;;;;;;4.78;3.08;;;;;;;25.66;100.00;98363.94;4367311;32;20043;-67
2022/08/21 08:05:50;;;;;;;5.50;3.60;;;;;;;26.02;100.00;98390.19;4369394;32;20061;-69
2022/08/21 08:08:17;;;;;;;7.07;3.42;;;;;;;25.68;100.00;98365.16;4370076;32;20061;-69
2022/08/21 08:10:44;;;;;;;7.72;3.28;;;;;;;26.02;100.00;98389.41;4323613;33;20493;-70
2022/08/21 08:13:10;;;;;;;7.47;3.62;;;;;;;26.19;100.00;98393.63;4324644;33;20102;-74
2022/08/21 08:15:37;;;;;;;3.90;3.50;;;;;;;26.15;100.00;98366.00;4323271;33;20040;-67
2022/08/21 08:18:04;;;;;;;8.23;4.05;;;;;;;26.37;100.00;98394.69;4323660;33;20041;-68
2022/08/21 08:20:30;;;;;;;6.25;3.53;;;;;;;26.03;100.00;98364.22;4329869;33;20095;-70
2022/08/21 08:22:57;;;;;;;14.23;3.87;;;;;;;25.98;100.00;98383.81;4324251;33;20068;-72
2022/08/21 08:25:25;;;;;;;6.65;2.83;;;;;;;25.58;100.00;98360.25;4325016;33;20866;-70
2022/08/21 08:27:51;;;;;;;10.30;3.90;;;;;;;25.83;100.00;98395.75;4327422;33;20036;-69
2022/08/21 08:30:21;;;;;;;4.43;2.97;;;;;;;25.52;100.00;98351.50;4318925;33;20043;-69
2022/08/21 08:32:49;;;;;;;4.10;3.03;;;;;;;25.69;100.00;98365.97;4310632;33;20301;-70
2022/08/21 08:35:16;;;;;;;5.68;3.30;;;;;;;25.96;100.00;98374.28;4309253;33;20029;-70
2022/08/21 08:37:45;;;;;;;7.87;2.97;;;;;;;25.94;100.00;98399.47;4310255;33;20264;-69
2022/08/21 08:40:17;;;;;;;14.05;4.87;;;;;;;26.08;100.00;98394.22;4310176;33;20106;-70
2022/08/21 08:42:47;;;;;;;5.55;3.08;;;;;;;26.46;100.00;98397.97;4336222;33;20052;-70
2022/08/21 08:45:19;;;;;;;12.02;3.10;;;;;;;26.07;100.00;98365.06;4331362;33;20075;-70
2022/08/21 08:47:51;;;;;;;4.90;2.97;;;;;;;25.90;100.00;98398.63;4338144;33;20040;-71
2022/08/21 08:50:23;;;;;;;13.00;4.75;;;;;;;26.13;100.00;98395.88;4339094;33;20031;-69
2022/08/21 08:52:58;;;;;;;6.50;4.30;;;;;;;25.88;100.00;98351.31;4348748;32;20073;-69
2022/08/21 08:55:45;;;;;;;10.82;3.20;;;;;;;26.11;100.00;98373.41;4369582;32;20104;-70
2022/08/21 08:58:18;;;;;;;3.53;2.58;;;;;;;26.19;100.00;98401.91;4364240;32;20052;-73
2022/08/21 09:00:48;;;;;;;5.35;3.28;;;;;;;26.16;100.00;98399.87;4355775;32;20050;-69
2022/08/21 09:03:15;;;;;;;10.65;3.37;;;;;;;26.22;100.00;98401.16;4352873;32;20063;-68
2022/08/21 09:05:49;;;;;;;4.20;3.30;;;;;;;26.46;100.00;98400.75;4352657;32;20032;-70
2022/08/21 09:08:37;;;;;;;3.78;3.20;;;;;;;26.50;100.00;98400.00;4349395;32;20066;-71
2022/08/21 09:11:22;;;;;;;4.90;3.28;;;;;;;26.63;100.00;98395.88;4353891;32;20027;-76
2022/08/21 09:14:16;;;;;;;3.75;2.97;;;;;;;26.59;100.00;98401.31;4352579;32;20058;-71
2022/08/21 09:17:12;;;;;;;3.35;3.08;;;;;;;26.56;100.00;98357.13;4353223;32;20406;-71
2022/08/21 09:19:59;;;;;;;3.90;3.45;;;;;;;26.93;100.00;98403.41;4348603;32;20047;-71
2022/08/21 09:23:22;;;;;;;7.40;2.97;;;;;;;26.96;100.00;98397.91;4350321;32;20447;-70
2022/08/21 09:26:14;;;;;;;3.80;3.30;;;;;;;26.84;100.00;98384.34;4325569;32;20044;-71
2022/08/21 09:28:42;;;;;;;11.80;2.90;;;;;;;26.99;100.00;98379.81;4332072;33;20130;-70
2022/08/21 09:31:21;;;;;;;7.18;3.10;;;;;;;26.71;100.00;98400.34;4353086;32;20036;-70
2022/08/21 09:33:47;;;;;;;7.60;3.12;;;;;;;26.73;100.00;98395.25;4374390;32;20046;-72
2022/08/21 09:36:25;;;;;;;5.72;3.85;;;;;;;26.94;100.00;98388.44;4377852;32;20390;-73
2022/08/21 09:38:54;;;;;;;7.80;4.35;;;;;;;26.92;100.00;98369.47;4350108;32;20052;-72
2022/08/21 09:41:28;;;;;;;7.80;4.35;;;;;;;26.92;100.00;98393.53;4351290;32;20075;-71
2022/08/21 09:43:55;;;;;;;4.80;3.22;;;;;;;27.06;100.00;98402.00;4351429;32;20417;-73
2022/08/21 09:46:24;;;;;;;3.72;3.33;;;;;;;27.16;100.00;98395.00;4347504;32;20036;-69
2022/08/21 09:48:53;;;;;;;11.55;4.12;;;;;;;27.11;100.00;98398.09;4321573;33;20040;-71
2022/08/21 09:51:32;;;;;;;6.20;3.62;;;;;;;26.93;100.00;98384.06;4322036;33;20088;-71
2022/08/21 09:54:07;;;;;;;7.30;3.90;;;;;;;27.03;100.00;98388.13;4310372;33;20154;-73
2022/08/21 09:59:31;;;;;;;4.07;3.65;;;;;;;26.75;100.00;98354.25;4307554;33;20156;-70
2022/08/21 10:02:16;;;;;;;9.85;3.72;;;;;;;26.87;100.00;98382.78;4306533;33;20091;-70
2022/08/21 10:04:51;;;;;;;5.30;4.20;;;;;;;27.06;100.00;98381.84;4306560;33;20044;-70
2022/08/21 10:07:20;;;;;;;4.18;3.83;;;;;;;27.12;100.00;98381.12;4283345;33;20055;-72
2022/08/21 10:10:05;;;;;;;7.65;4.20;;;;;;;26.86;100.00;98334.28;4309044;33;20066;-69
2022/08/21 10:12:40;;;;;;;5.12;3.80;;;;;;;27.26;100.00;98388.03;4342553;32;20028;-70
2022/08/21 10:15:27;;;;;;;6.12;4.93;;;;;;;27.06;100.00;98359.75;4337312;32;20036;-70
2022/08/21 10:18:09;;;;;;;4.85;3.35;;;;;;;27.43;100.00;98387.47;4339255;32;20096;-71
2022/08/21 10:20:54;;;;;;;9.25;3.42;;;;;;;27.57;100.00;98374.94;4359735;32;20394;-71
2022/08/21 10:23:56;;;;;;;10.10;3.65;;;;;;;27.88;100.00;98385.53;4374824;32;20475;-70
2022/08/21 10:26:38;;;;;;;9.30;3.47;;;;;;;27.81;100.00;98357.81;4324442;33;20089;-70
2022/08/21 10:29:16;;;;;;;4.47;3.37;;;;;;;28.09;100.00;98384.94;4309671;33;20157;-69
2022/08/21 10:32:04;;;;;;;15.73;3.92;;;;;;;28.08;100.00;98371.47;4292207;33;20103;-69
2022/08/21 10:34:39;;;;;;;8.88;3.03;;;;;;;27.79;100.00;98382.28;4292350;33;20093;-70
2022/08/21 10:37:45;;;;;;;7.85;3.62;;;;;;;27.63;100.00;98387.25;4290381;33;20053;-73
2022/08/21 10:40:49;;;;;;;4.10;3.70;;;;;;;28.20;100.00;98379.50;4320305;33;20075;-71
2022/08/21 10:43:20;;;;;;;9.10;3.10;;;;;;;28.36;100.00;98381.19;4319521;33;20056;-70
2022/08/21 10:46:03;;;;;;;3.47;2.90;;;;;;;28.42;100.00;98379.66;4318856;33;20111;-70
2022/08/21 10:48:43;;;;;;;3.45;3.08;;;;;;;28.44;100.00;98366.22;4286801;33;20120;-68
2022/08/21 10:51:17;;;;;;;6.22;3.20;;;;;;;28.45;100.00;98368.59;4285022;33;20055;-70
2022/08/21 10:54:02;;;;;;;5.85;3.60;;;;;;;28.67;100.00;98376.28;4260093;33;20065;-71
2022/08/21 10:56:32;;;;;;;9.38;3.92;;;;;;;28.79;100.00;98371.19;4257692;33;20029;-68
2022/08/21 10:59:19;;;;;;;5.55;3.50;;;;;;;28.44;100.00;98382.81;4260518;33;20424;-68
2022/08/21 11:02:15;;;;;;;5.95;4.50;;;;;;;27.75;100.00;98347.47;4303942;33;20071;-69
2022/08/21 11:04:47;;;;;;;4.87;3.55;;;;;;;27.51;100.00;98380.81;4336648;33;20087;-73
2022/08/21 11:07:19;;;;;;;6.47;3.90;;;;;;;27.42;100.00;98363.75;4345425;33;20333;-70
2022/08/21 11:09:49;;;;;;;6.47;4.00;;;;;;;27.18;100.00;98343.72;4342313;33;20353;-68
2022/08/21 11:12:38;;;;;;;5.68;4.45;;;;;;;26.94;100.00;98369.87;4345621;33;20063;-71
2022/08/21 11:15:36;;;;;;;8.98;3.78;;;;;;;26.52;100.00;98368.13;4343305;33;20036;-68
2022/08/21 11:18:08;;;;;;;6.40;3.62;;;;;;;26.55;100.00;98367.38;4345741;33;20093;-77
2022/08/21 11:20:59;;;;;;;7.00;4.47;;;;;;;26.64;100.00;98375.38;4344713;33;20052;-69
2022/08/21 11:23:36;;;;;;;4.62;4.15;;;;;;;26.72;100.00;98376.28;4336050;33;20046;-69
2022/08/21 11:26:17;;;;;;;8.90;3.92;;;;;;;26.70;100.00;98339.97;4379922;32;20086;-68
2022/08/21 11:28:54;;;;;;;3.70;3.25;;;;;;;26.76;100.00;98361.38;4399908;32;20080;-70
2022/08/21 11:31:50;;;;;;;6.00;4.03;;;;;;;26.76;100.00;98366.88;4397529;32;20182;-68
2022/08/21 11:34:57;;;;;;;8.70;3.05;;;;;;;26.90;100.00;98365.47;4400266;32;20061;-69
2022/08/21 11:37:27;;;;;;;7.72;3.95;;;;;;;26.99;100.00;98364.00;4379758;32;20035;-68
2022/08/21 11:40:05;;;;;;;4.60;3.45;;;;;;;27.03;100.00;98369.59;4402849;32;20035;-69
2022/08/21 11:42:47;;;;;;;5.00;3.92;;;;;;;27.03;100.00;98371.56;4403359;32;20805;-68